Overview Statistics Trail Chart Weather Telemetry Raw packets
 

This is the latest recevied weather packets stored in our database for station/object VE3DVC. If no packets are shown the sender has not sent any weather packets the latest 10 day(s).

<< 36 37 38 39 40 41 42 >>
Time Temp. Humidity Pressure Rain* Wind** Luminosity Snow
1787966685 16.11° C 90% 1021.9 hPa 0 mm - - -
1787965963 16.67° C 90% 1021.9 hPa 0 mm - - -
1787965246 16.67° C 89% 1021.8 hPa 0 mm - - -
1787964524 17.22° C 88% 1021.6 hPa 0 mm - - -
1787961371 18.33° C 86% 1021.3 hPa 0 mm - - -
1787960650 18.89° C 85% 1021.1 hPa 0 mm - - -
1787959940 18.89° C 85% 1021 hPa 0 mm - - -
1787959210 19.44° C 84% 1021 hPa 0 mm - - -
1787958490 19.44° C 84% 1020.9 hPa 0 mm - - -
1787957770 19.44° C 85% 1021 hPa 0 mm - - -
1787957050 20° C 85% 1021 hPa 0 mm - - -
1787956330 19.44° C 84% 1021 hPa 0 mm - - -
1787955611 19.44° C 84% 1021 hPa 0 mm - - -
1787954890 19.44° C 85% 1020.9 hPa 0 mm - - -
1787954170 19.44° C 83% 1021 hPa 0 mm - - -
1787953451 19.44° C 82% 1021 hPa 0 mm - - -
1787952730 19.44° C 81% 1021 hPa 0 mm - - -
1787952010 20° C 82% 1020.9 hPa 0 mm - - -
1787951290 20° C 77% 1021 hPa 0 mm - - -
1787950570 20.56° C 77% 1021 hPa 0 mm - - -
1787949851 20.56° C 76% 1021 hPa 0 mm - - -
1787949130 20.56° C 76% 1021 hPa 0 mm - - -
1787948410 21.11° C 73% 1021 hPa 0 mm - - -
1787947690 21.67° C 72% 1020.9 hPa 0 mm - - -
1787946515 21.67° C 73% 1021.1 hPa 0 mm - - -

* Rain latest hour (hover to see other rain measurements)
** Current wind speed in m/s (hover to see current wind gust speed)